Mansfield, OH

12:09 PM EDT on September 04, 2015 (GMT -0400)
Mansfield Lahm Regional | | Change Station
CLOSE
Current Station
Airport
Location: Mansfield,
Elevation: 1296 ft
Nearby Weather Stations

Elev 1296 ft 40.82 °N, 82.52 °W | Updated 17 minutes ago

Scattered Clouds
Scattered Clouds
73 °F
Feels Like 73 °F
N
14
Wind Variable Wind from SE

Today
High -- | Low -- °F
--% Chance of Precip.
Yesterday
High -- | Low -- °F
Precip. -- in
6:59 AM 7:57 PM
Waning Gibbous, 58% visible
Pressure 30.08 in
Visibility 10.0 miles
Clouds Scattered Clouds 4400 ft
Dew Point 65 °F
Humidity 76%
Rainfall 0.49 in
Snow Depth Not available.
UV 6 out of 12
Pollen 8.90 out of 12
Air Quality Not available.
Flu Activity Not available.
METAR KMFD 041552Z 14012KT 10SM SCT044 23/18 A3010 RMK AO2 SLP184 T02280183
Pressure 30.08 in
Visibility 10.0 miles
Clouds Scattered Clouds 4400 ft
Dew Point 65 °F
Humidity 76%
Rainfall 0.49 in
Snow Depth Not available.
UV 6 out of 12
Pollen 8.90 out of 12
Air Quality Not available.
Flu Activity Not available.
METAR KMFD 041552Z 14012KT 10SM SCT044 23/18 A3010 RMK AO2 SLP184 T02280183

10-Day Weather Forecast

×

Almanac

Astronomy

Sep. 04, 2015 Rise Set
Actual Time
Civil Twilight
Nautical Twilight
Astronomical Twilight
Moon
Length of Visible Light
Length of Day
Tomorrow will be .
, % of the Moon is Illuminated

Today's Extremes

State Highs State Lows

Community

WunderPhotos

Upload Photos

1,852,210 photos uploaded!

WunderBlogs® & News

Nearby

Air Quality

  Air Quality AQ Index Pollutant
Not available.

Snow Depth

Station Depth Elevation

Earthquake Activity

City Distance Mag. Time & Date
Minimum magnitude displayed is 2.5.

Coastal Water Temperatures

Place Temperature

Stations

Nearby Weather Stations

Station Location Temp. Windchill Dew Point Humidity Wind Precip. Elev Updated Type